sensor_id;sensor_type;location;lat;lon;timestamp;pressure;altitude;pressure_sealevel;temperature;humidity
48077;BME280;33854;57.708;12.008;2023-02-04T00:00:39;99650.31;;;-2.04;100.00
48077;BME280;33854;57.708;12.008;2023-02-04T00:03:06;99659.72;;;-2.09;100.00
48077;BME280;33854;57.708;12.008;2023-02-04T00:05:31;99664.88;;;-2.10;100.00
48077;BME280;33854;57.708;12.008;2023-02-04T00:07:57;99668.28;;;-2.11;100.00
48077;BME280;33854;57.708;12.008;2023-02-04T00:10:22;99670.78;;;-2.07;100.00
48077;BME280;33854;57.708;12.008;2023-02-04T00:12:48;99680.16;;;-2.07;100.00
48077;BME280;33854;57.708;12.008;2023-02-04T00:15:13;99680.13;;;-2.06;100.00
48077;BME280;33854;57.708;12.008;2023-02-04T00:17:38;99678.44;;;-2.04;100.00
48077;BME280;33854;57.708;12.008;2023-02-04T00:20:04;99672.47;;;-2.04;100.00
48077;BME280;33854;57.708;12.008;2023-02-04T00:22:30;99684.28;;;-1.96;100.00
48077;BME280;33854;57.708;12.008;2023-02-04T00:24:55;99694.50;;;-1.94;100.00
48077;BME280;33854;57.708;12.008;2023-02-04T00:27:21;99703.91;;;-1.98;100.00
48077;BME280;33854;57.708;12.008;2023-02-04T00:29:47;99698.84;;;-2.02;100.00
48077;BME280;33854;57.708;12.008;2023-02-04T00:32:12;99720.19;;;-2.05;100.00
48077;BME280;33854;57.708;12.008;2023-02-04T00:34:37;99730.44;;;-2.09;100.00
48077;BME280;33854;57.708;12.008;2023-02-04T00:37:03;99727.97;;;-2.15;100.00
48077;BME280;33854;57.708;12.008;2023-02-04T00:39:28;99741.63;;;-2.16;100.00
48077;BME280;33854;57.708;12.008;2023-02-04T00:41:54;99739.97;;;-2.23;100.00
48077;BME280;33854;57.708;12.008;2023-02-04T00:44:19;99748.56;;;-2.27;100.00
48077;BME280;33854;57.708;12.008;2023-02-04T00:46:44;99757.19;;;-2.39;100.00
48077;BME280;33854;57.708;12.008;2023-02-04T00:49:10;99765.81;;;-2.51;100.00
48077;BME280;33854;57.708;12.008;2023-02-04T00:51:39;99764.16;;;-2.61;100.00
48077;BME280;33854;57.708;12.008;2023-02-04T00:54:06;99761.63;;;-2.64;100.00
48077;BME280;33854;57.708;12.008;2023-02-04T00:56:32;99765.97;;;-2.72;100.00
48077;BME280;33854;57.708;12.008;2023-02-04T00:58:58;99766.03;;;-2.76;100.00
48077;BME280;33854;57.708;12.008;2023-02-04T01:01:23;99763.53;;;-2.85;100.00
48077;BME280;33854;57.708;12.008;2023-02-04T01:03:49;99764.41;;;-2.91;100.00
48077;BME280;33854;57.708;12.008;2023-02-04T01:06:14;99777.22;;;-2.97;100.00
48077;BME280;33854;57.708;12.008;2023-02-04T01:08:39;99771.31;;;-3.02;100.00
48077;BME280;33854;57.708;12.008;2023-02-04T01:11:05;99770.50;;;-3.09;100.00
48077;BME280;33854;57.708;12.008;2023-02-04T01:13:30;99768.03;;;-3.19;100.00
48077;BME280;33854;57.708;12.008;2023-02-04T01:15:56;99774.81;;;-3.21;100.00
48077;BME280;33854;57.708;12.008;2023-02-04T01:18:21;99781.66;;;-3.26;100.00
48077;BME280;33854;57.708;12.008;2023-02-04T01:20:47;99791.03;;;-3.28;100.00
48077;BME280;33854;57.708;12.008;2023-02-04T01:23:12;99800.41;;;-3.33;100.00
48077;BME280;33854;57.708;12.008;2023-02-04T01:25:37;99786.88;;;-3.41;100.00
48077;BME280;33854;57.708;12.008;2023-02-04T01:28:03;99795.34;;;-3.39;100.00
48077;BME280;33854;57.708;12.008;2023-02-04T01:30:28;99793.69;;;-3.53;100.00
48077;BME280;33854;57.708;12.008;2023-02-04T01:32:54;99814.94;;;-3.44;100.00
48077;BME280;33854;57.708;12.008;2023-02-04T01:35:19;99810.69;;;-3.49;100.00
48077;BME280;33854;57.708;12.008;2023-02-04T01:37:45;99810.66;;;-3.50;100.00
48077;BME280;33854;57.708;12.008;2023-02-04T01:40:10;99829.41;;;-3.56;100.00
48077;BME280;33854;57.708;12.008;2023-02-04T01:42:36;99833.66;;;-3.55;100.00
48077;BME280;33854;57.708;12.008;2023-02-04T01:45:03;99842.19;;;-3.60;100.00
48077;BME280;33854;57.708;12.008;2023-02-04T01:47:31;99849.84;;;-3.62;100.00
48077;BME280;33854;57.708;12.008;2023-02-04T01:49:57;99855.81;;;-3.69;100.00
48077;BME280;33854;57.708;12.008;2023-02-04T01:52:23;99854.97;;;-3.74;100.00
48077;BME280;33854;57.708;12.008;2023-02-04T01:54:49;99864.31;;;-3.74;100.00
48077;BME280;33854;57.708;12.008;2023-02-04T01:57:15;99877.06;;;-3.76;100.00
48077;BME280;33854;57.708;12.008;2023-02-04T01:59:45;99876.25;;;-3.82;100.00
48077;BME280;33854;57.708;12.008;2023-02-04T02:02:43;99889.84;;;-3.86;100.00
48077;BME280;33854;57.708;12.008;2023-02-04T02:05:12;99897.50;;;-3.91;100.00
48077;BME280;33854;57.708;12.008;2023-02-04T02:07:38;99902.59;;;-3.97;100.00
48077;BME280;33854;57.708;12.008;2023-02-04T02:10:05;99895.81;;;-4.06;100.00
48077;BME280;33854;57.708;12.008;2023-02-04T02:12:31;99910.25;;;-4.03;100.00
48077;BME280;33854;57.708;12.008;2023-02-04T02:14:56;99920.44;;;-4.03;100.00
48077;BME280;33854;57.708;12.008;2023-02-04T02:17:23;99928.09;;;-4.09;100.00
48077;BME280;33854;57.708;12.008;2023-02-04T02:19:49;99934.03;;;-4.12;100.00
48077;BME280;33854;57.708;12.008;2023-02-04T02:24:48;99951.88;;;-4.16;100.00
48077;BME280;33854;57.708;12.008;2023-02-04T02:27:13;99962.06;;;-4.19;100.00
48077;BME280;33854;57.708;12.008;2023-02-04T02:29:41;99956.94;;;-4.21;100.00
48077;BME280;33854;57.708;12.008;2023-02-04T02:32:08;99974.78;;;-4.24;100.00
48077;BME280;33854;57.708;12.008;2023-02-04T02:34:35;99992.59;;;-4.27;100.00
48077;BME280;33854;57.708;12.008;2023-02-04T02:37:02;99992.59;;;-4.33;100.00
48077;BME280;33854;57.708;12.008;2023-02-04T02:39:28;99997.69;;;-4.33;100.00
48077;BME280;33854;57.708;12.008;2023-02-04T02:41:55;100015.50;;;-4.36;100.00
48077;BME280;33854;57.708;12.008;2023-02-04T02:44:22;100021.47;;;-4.34;100.00
48077;BME280;33854;57.708;12.008;2023-02-04T02:46:48;100021.44;;;-4.38;100.00
48077;BME280;33854;57.708;12.008;2023-02-04T02:49:15;100036.72;;;-4.41;100.00
48077;BME280;33854;57.708;12.008;2023-02-04T02:51:42;100023.94;;;-4.55;100.00
48077;BME280;33854;57.708;12.008;2023-02-04T02:54:22;100041.78;;;-4.47;100.00
48077;BME280;33854;57.708;12.008;2023-02-04T02:56:48;100049.44;;;-4.53;100.00
48077;BME280;33854;57.708;12.008;2023-02-04T02:59:14;100059.59;;;-4.52;100.00
48077;BME280;33854;57.708;12.008;2023-02-04T03:01:40;100058.75;;;-4.57;100.00
48077;BME280;33854;57.708;12.008;2023-02-04T03:04:07;100070.63;;;-4.57;100.00
48077;BME280;33854;57.708;12.008;2023-02-04T03:06:33;100080.78;;;-4.61;100.00
48077;BME280;33854;57.708;12.008;2023-02-04T03:08:59;100093.53;;;-4.61;100.00
48077;BME280;33854;57.708;12.008;2023-02-04T03:11:24;100087.53;;;-4.69;100.00
48077;BME280;33854;57.708;12.008;2023-02-04T03:13:54;100096.91;;;-4.66;100.00
48077;BME280;33854;57.708;12.008;2023-02-04T03:16:20;100096.91;;;-4.66;100.00
48077;BME280;33854;57.708;12.008;2023-02-04T03:18:45;100103.69;;;-4.68;100.00
48077;BME280;33854;57.708;12.008;2023-02-04T03:21:11;100113.00;;;-4.69;100.00
48077;BME280;33854;57.708;12.008;2023-02-04T03:23:37;100113.00;;;-4.69;100.00
48077;BME280;33854;57.708;12.008;2023-02-04T03:26:03;100115.53;;;-4.70;100.00
48077;BME280;33854;57.708;12.008;2023-02-04T03:28:30;100123.19;;;-4.69;100.00
48077;BME280;33854;57.708;12.008;2023-02-04T03:30:56;100129.97;;;-4.74;100.00
48077;BME280;33854;57.708;12.008;2023-02-04T03:33:23;100132.47;;;-4.77;100.00
48077;BME280;33854;57.708;12.008;2023-02-04T03:35:51;100139.25;;;-4.77;100.00
48077;BME280;33854;57.708;12.008;2023-02-04T03:38:17;100143.47;;;-4.81;100.00
48077;BME280;33854;57.708;12.008;2023-02-04T03:40:43;100145.16;;;-4.83;100.00
48077;BME280;33854;57.708;12.008;2023-02-04T03:43:09;100150.19;;;-4.90;100.00
48077;BME280;33854;57.708;12.008;2023-02-04T03:45:34;100161.22;;;-4.90;100.00
48077;BME280;33854;57.708;12.008;2023-02-04T03:47:59;100155.28;;;-4.92;100.00
48077;BME280;33854;57.708;12.008;2023-02-04T03:50:25;100149.28;;;-5.03;100.00
48077;BME280;33854;57.708;12.008;2023-02-04T03:52:50;100165.41;;;-4.98;100.00
48077;BME280;33854;57.708;12.008;2023-02-04T03:55:16;100167.94;;;-5.02;100.00
48077;BME280;33854;57.708;12.008;2023-02-04T03:57:42;100170.41;;;-5.10;100.00
48077;BME280;33854;57.708;12.008;2023-02-04T04:00:08;100173.72;;;-5.19;100.00
48077;BME280;33854;57.708;12.008;2023-02-04T04:02:34;100188.13;;;-5.19;100.00
48077;BME280;33854;57.708;12.008;2023-02-04T04:04:59;100191.56;;;-5.17;100.00
48077;BME280;33854;57.708;12.008;2023-02-04T04:07:25;100190.66;;;-5.22;100.00
48077;BME280;33854;57.708;12.008;2023-02-04T04:09:50;100210.13;;;-5.26;100.00
48077;BME280;33854;57.708;12.008;2023-02-04T04:12:16;100218.56;;;-5.31;100.00
48077;BME280;33854;57.708;12.008;2023-02-04T04:14:41;100227.88;;;-5.30;100.00
48077;BME280;33854;57.708;12.008;2023-02-04T04:17:06;100232.94;;;-5.33;100.00
48077;BME280;33854;57.708;12.008;2023-02-04T04:19:32;100242.28;;;-5.32;100.00
48077;BME280;33854;57.708;12.008;2023-02-04T04:21:58;100251.56;;;-5.37;100.00
48077;BME280;33854;57.708;12.008;2023-02-04T04:24:23;100264.25;;;-5.40;100.00
48077;BME280;33854;57.708;12.008;2023-02-04T04:26:48;100272.63;;;-5.49;100.00
48077;BME280;33854;57.708;12.008;2023-02-04T04:29:14;100284.44;;;-5.54;100.00
48077;BME280;33854;57.708;12.008;2023-02-04T04:31:39;100275.09;;;-5.53;100.00
48077;BME280;33854;57.708;12.008;2023-02-04T04:34:05;100280.22;;;-5.50;100.00
48077;BME280;33854;57.708;12.008;2023-02-04T04:36:30;100287.78;;;-5.56;100.00
48077;BME280;33854;57.708;12.008;2023-02-04T04:38:55;100293.69;;;-5.60;100.00
48077;BME280;33854;57.708;12.008;2023-02-04T04:41:21;100303.81;;;-5.63;100.00
48077;BME280;33854;57.708;12.008;2023-02-04T04:43:46;100305.50;;;-5.65;100.00
48077;BME280;33854;57.708;12.008;2023-02-04T04:46:11;100308.03;;;-5.65;100.00
48077;BME280;33854;57.708;12.008;2023-02-04T04:48:37;100298.66;;;-5.69;100.00
48077;BME280;33854;57.708;12.008;2023-02-04T04:51:03;100317.31;;;-5.67;100.00
48077;BME280;33854;57.708;12.008;2023-02-04T04:53:28;100327.44;;;-5.70;100.00
48077;BME280;33854;57.708;12.008;2023-02-04T04:55:54;100346.00;;;-5.76;100.00
48077;BME280;33854;57.708;12.008;2023-02-04T04:58:19;100345.13;;;-5.78;100.00
48077;BME280;33854;57.708;12.008;2023-02-04T05:00:45;100347.63;;;-5.80;100.00
48077;BME280;33854;57.708;12.008;2023-02-04T05:03:10;100347.56;;;-5.87;100.00
48077;BME280;33854;57.708;12.008;2023-02-04T05:05:36;100316.72;;;-6.13;100.00
48077;BME280;33854;57.708;12.008;2023-02-04T05:08:05;100356.78;;;-5.94;100.00
48077;BME280;33854;57.708;12.008;2023-02-04T05:10:35;100362.72;;;-5.95;100.00
48077;BME280;33854;57.708;12.008;2023-02-04T05:13:00;100364.47;;;-5.91;100.00
48077;BME280;33854;57.708;12.008;2023-02-04T05:15:26;100372.94;;;-5.92;100.00
48077;BME280;33854;57.708;12.008;2023-02-04T05:17:51;100375.47;;;-5.90;100.00
48077;BME280;33854;57.708;12.008;2023-02-04T05:20:17;100383.06;;;-5.95;100.00
48077;BME280;33854;57.708;12.008;2023-02-04T05:22:43;100389.78;;;-5.97;100.00
48077;BME280;33854;57.708;12.008;2023-02-04T05:25:08;100393.13;;;-6.01;100.00
48077;BME280;33854;57.708;12.008;2023-02-04T05:27:34;100387.97;;;-6.05;100.00
48077;BME280;33854;57.708;12.008;2023-02-04T05:30:00;100405.78;;;-6.02;100.00
48077;BME280;33854;57.708;12.008;2023-02-04T05:32:25;100399.88;;;-6.03;100.00
48077;BME280;33854;57.708;12.008;2023-02-04T05:34:51;100393.88;;;-6.06;100.00
48077;BME280;33854;57.708;12.008;2023-02-04T05:37:16;100398.75;;;-6.20;100.00
48077;BME280;33854;57.708;12.008;2023-02-04T05:39:43;100406.38;;;-6.20;100.00
48077;BME280;33854;57.708;12.008;2023-02-04T05:42:08;100418.16;;;-6.23;100.00
48077;BME280;33854;57.708;12.008;2023-02-04T05:44:33;100409.69;;;-6.22;100.00
48077;BME280;33854;57.708;12.008;2023-02-04T05:46:59;100419.84;;;-6.24;100.00
48077;BME280;33854;57.708;12.008;2023-02-04T05:49:24;100437.59;;;-6.25;100.00
48077;BME280;33854;57.708;12.008;2023-02-04T05:51:50;100455.06;;;-6.42;100.00
48077;BME280;33854;57.708;12.008;2023-02-04T05:54:15;100453.03;;;-6.61;100.00
48077;BME280;33854;57.708;12.008;2023-02-04T05:56:44;100466.66;;;-6.58;100.00
48077;BME280;33854;57.708;12.008;2023-02-04T05:59:09;100468.28;;;-6.61;100.00
48077;BME280;33854;57.708;12.008;2023-02-04T06:01:35;100482.59;;;-6.65;100.00
48077;BME280;33854;57.708;12.008;2023-02-04T06:04:00;100480.84;;;-6.67;100.00
48077;BME280;33854;57.708;12.008;2023-02-04T06:06:26;100488.53;;;-6.63;100.00
48077;BME280;33854;57.708;12.008;2023-02-04T06:08:51;100484.41;;;-6.58;100.00
48077;BME280;33854;57.708;12.008;2023-02-04T06:11:16;100496.31;;;-6.55;100.00
48077;BME280;33854;57.708;12.008;2023-02-04T06:13:42;100494.50;;;-6.61;100.00
48077;BME280;33854;57.708;12.008;2023-02-04T06:16:07;100515.50;;;-6.69;100.00
48077;BME280;33854;57.708;12.008;2023-02-04T06:18:33;100524.66;;;-6.76;100.00
48077;BME280;33854;57.708;12.008;2023-02-04T06:20:58;100527.84;;;-6.86;100.00
48077;BME280;33854;57.708;12.008;2023-02-04T06:23:24;100542.22;;;-6.86;100.00
48077;BME280;33854;57.708;12.008;2023-02-04T06:25:49;100543.97;;;-6.82;100.00
48077;BME280;33854;57.708;12.008;2023-02-04T06:28:15;100532.94;;;-6.86;100.00
48077;BME280;33854;57.708;12.008;2023-02-04T06:30:40;100547.53;;;-6.74;100.00
48077;BME280;33854;57.708;12.008;2023-02-04T06:33:06;100579.00;;;-6.66;100.00
48077;BME280;33854;57.708;12.008;2023-02-04T06:35:31;100591.44;;;-6.78;100.00
48077;BME280;33854;57.708;12.008;2023-02-04T06:37:56;100597.91;;;-6.93;100.00
48077;BME280;33854;57.708;12.008;2023-02-04T06:40:22;100588.41;;;-7.00;100.00
48077;BME280;33854;57.708;12.008;2023-02-04T06:42:47;100605.59;;;-6.88;100.00
48077;BME280;33854;57.708;12.008;2023-02-04T06:45:13;100620.72;;;-6.93;100.00
48077;BME280;33854;57.708;12.008;2023-02-04T06:47:38;100600.13;;;-7.06;100.00
48077;BME280;33854;57.708;12.008;2023-02-04T06:50:04;100631.59;;;-6.98;100.00
48077;BME280;33854;57.708;12.008;2023-02-04T06:52:29;100626.63;;;-6.94;100.00
48077;BME280;33854;57.708;12.008;2023-02-04T06:54:54;100635.06;;;-6.95;100.00
48077;BME280;33854;57.708;12.008;2023-02-04T06:57:20;100630.69;;;-7.00;100.00
48077;BME280;33854;57.708;12.008;2023-02-04T06:59:45;100634.06;;;-7.01;100.00
48077;BME280;33854;57.708;12.008;2023-02-04T07:02:11;100636.75;;;-6.94;100.00
48077;BME280;33854;57.708;12.008;2023-02-04T07:04:37;100640.00;;;-7.01;100.00
48077;BME280;33854;57.708;12.008;2023-02-04T07:07:02;100641.53;;;-7.06;100.00
48077;BME280;33854;57.708;12.008;2023-02-04T07:09:28;100643.19;;;-7.08;100.00
48077;BME280;33854;57.708;12.008;2023-02-04T07:11:54;100651.63;;;-7.09;100.00
48077;BME280;33854;57.708;12.008;2023-02-04T07:14:19;100648.19;;;-7.11;100.00
48077;BME280;33854;57.708;12.008;2023-02-04T07:16:45;100647.47;;;-7.07;100.00
48077;BME280;33854;57.708;12.008;2023-02-04T07:19:10;100620.13;;;-7.18;100.00
48077;BME280;33854;57.708;12.008;2023-02-04T07:21:36;100638.06;;;-7.11;100.00
48077;BME280;33854;57.708;12.008;2023-02-04T07:24:01;100641.53;;;-7.06;100.00
48077;BME280;33854;57.708;12.008;2023-02-04T07:26:27;100632.38;;;-7.01;100.00
48077;BME280;33854;57.708;12.008;2023-02-04T07:28:52;100625.53;;;-7.05;100.00
48077;BME280;33854;57.708;12.008;2023-02-04T07:31:18;100620.50;;;-7.03;100.00
48077;BME280;33854;57.708;12.008;2023-02-04T07:33:43;100630.75;;;-6.97;100.00
48077;BME280;33854;57.708;12.008;2023-02-04T07:36:08;100628.19;;;-6.99;100.00
48077;BME280;33854;57.708;12.008;2023-02-04T07:38:34;100630.00;;;-6.93;100.00
48077;BME280;33854;57.708;12.008;2023-02-04T07:40:59;100625.06;;;-6.87;100.00
48077;BME280;33854;57.708;12.008;2023-02-04T07:43:25;100617.41;;;-6.88;100.00
48077;BME280;33854;57.708;12.008;2023-02-04T07:45:50;100619.94;;;-6.90;100.00
48077;BME280;33854;57.708;12.008;2023-02-04T07:48:16;100603.03;;;-6.89;100.00
48077;BME280;33854;57.708;12.008;2023-02-04T07:50:41;100609.16;;;-6.80;100.00
48077;BME280;33854;57.708;12.008;2023-02-04T07:53:07;100607.66;;;-6.72;100.00
48077;BME280;33854;57.708;12.008;2023-02-04T07:55:32;100601.72;;;-6.72;100.00
48077;BME280;33854;57.708;12.008;2023-02-04T07:57:58;100591.69;;;-6.66;100.00
48077;BME280;33854;57.708;12.008;2023-02-04T08:00:23;100596.91;;;-6.60;100.00
48077;BME280;33854;57.708;12.008;2023-02-04T08:02:49;100589.44;;;-6.53;100.00
48077;BME280;33854;57.708;12.008;2023-02-04T08:05:14;100595.38;;;-6.52;100.00
48077;BME280;33854;57.708;12.008;2023-02-04T08:07:40;100594.44;;;-6.56;100.00
48077;BME280;33854;57.708;12.008;2023-02-04T08:10:06;100610.66;;;-6.49;100.00
48077;BME280;33854;57.708;12.008;2023-02-04T08:12:32;100589.63;;;-6.42;100.00
48077;BME280;33854;57.708;12.008;2023-02-04T08:14:58;100594.03;;;-6.33;100.00
48077;BME280;33854;57.708;12.008;2023-02-04T08:17:24;100570.28;;;-6.37;100.00
48077;BME280;33854;57.708;12.008;2023-02-04T08:19:49;100577.38;;;-6.21;100.00
48077;BME280;33854;57.708;12.008;2023-02-04T08:22:15;100580.91;;;-6.13;100.00
48077;BME280;33854;57.708;12.008;2023-02-04T08:24:40;100575.22;;;-6.00;100.00
48077;BME280;33854;57.708;12.008;2023-02-04T08:27:06;100564.38;;;-5.90;100.00
48077;BME280;33854;57.708;12.008;2023-02-04T08:29:31;100561.97;;;-5.81;100.00
48077;BME280;33854;57.708;12.008;2023-02-04T08:31:57;100560.34;;;-5.77;100.00
48077;BME280;33854;57.708;12.008;2023-02-04T08:34:22;100580.75;;;-5.71;100.00
48077;BME280;33854;57.708;12.008;2023-02-04T08:36:47;100569.81;;;-5.67;100.00
48077;BME280;33854;57.708;12.008;2023-02-04T08:39:13;100563.88;;;-5.67;100.00
48077;BME280;33854;57.708;12.008;2023-02-04T08:41:38;100560.53;;;-5.65;100.00
48077;BME280;33854;57.708;12.008;2023-02-04T08:44:04;100570.03;;;-5.53;100.00
48077;BME280;33854;57.708;12.008;2023-02-04T08:46:29;100572.72;;;-5.44;100.00
48077;BME280;33854;57.708;12.008;2023-02-04T08:48:55;100584.69;;;-5.39;100.00
48077;BME280;33854;57.708;12.008;2023-02-04T08:51:20;100583.97;;;-5.32;100.00
48077;BME280;33854;57.708;12.008;2023-02-04T08:53:46;100578.81;;;-5.33;100.00
48077;BME280;33854;57.708;12.008;2023-02-04T08:56:11;100591.53;;;-5.33;100.00
48077;BME280;33854;57.708;12.008;2023-02-04T08:58:41;100586.41;;;-5.36;100.00
48077;BME280;33854;57.708;12.008;2023-02-04T09:01:07;100576.13;;;-5.44;100.00
48077;BME280;33854;57.708;12.008;2023-02-04T09:03:32;100583.81;;;-5.39;100.00
48077;BME280;33854;57.708;12.008;2023-02-04T09:05:58;100589.81;;;-5.37;100.00
48077;BME280;33854;57.708;12.008;2023-02-04T09:08:23;100590.78;;;-5.29;100.00
48077;BME280;33854;57.708;12.008;2023-02-04T09:10:49;100576.28;;;-5.33;100.00
48077;BME280;33854;57.708;12.008;2023-02-04T09:13:14;100584.88;;;-5.28;100.00
48077;BME280;33854;57.708;12.008;2023-02-04T09:15:40;100584.78;;;-5.33;100.00
48077;BME280;33854;57.708;12.008;2023-02-04T09:18:05;100583.16;;;-5.28;100.00
48077;BME280;33854;57.708;12.008;2023-02-04T09:20:39;100572.16;;;-5.27;100.00
48077;BME280;33854;57.708;12.008;2023-02-04T09:23:04;100578.16;;;-5.22;100.00
48077;BME280;33854;57.708;12.008;2023-02-04T09:25:34;100573.19;;;-5.14;100.00
48077;BME280;33854;57.708;12.008;2023-02-04T09:28:00;100569.94;;;-5.05;100.00
48077;BME280;33854;57.708;12.008;2023-02-04T09:30:25;100573.34;;;-5.03;100.00
48077;BME280;33854;57.708;12.008;2023-02-04T09:32:51;100584.47;;;-4.97;100.00
48077;BME280;33854;57.708;12.008;2023-02-04T09:35:16;100583.66;;;-4.94;100.00
48077;BME280;33854;57.708;12.008;2023-02-04T09:37:41;100590.53;;;-4.89;100.00
48077;BME280;33854;57.708;12.008;2023-02-04T09:40:12;100583.84;;;-4.81;100.00
48077;BME280;33854;57.708;12.008;2023-02-04T09:42:38;100584.66;;;-4.82;100.00
48077;BME280;33854;57.708;12.008;2023-02-04T09:45:04;100583.09;;;-4.74;100.00
48077;BME280;33854;57.708;12.008;2023-02-04T09:47:29;100580.63;;;-4.66;100.00
48077;BME280;33854;57.708;12.008;2023-02-04T09:49:55;100583.22;;;-4.62;100.00
48077;BME280;33854;57.708;12.008;2023-02-04T09:52:20;100582.50;;;-4.54;100.00
48077;BME280;33854;57.708;12.008;2023-02-04T09:54:48;100583.44;;;-4.46;100.00
48077;BME280;33854;57.708;12.008;2023-02-04T09:57:17;100581.06;;;-4.31;100.00
48077;BME280;33854;57.708;12.008;2023-02-04T09:59:43;100582.78;;;-4.29;100.00
48077;BME280;33854;57.708;12.008;2023-02-04T10:02:22;100588.00;;;-4.18;100.00
48077;BME280;33854;57.708;12.008;2023-02-04T10:04:50;100572.84;;;-4.08;100.00
48077;BME280;33854;57.708;12.008;2023-02-04T10:07:19;100582.31;;;-3.93;100.00
48077;BME280;33854;57.708;12.008;2023-02-04T10:09:48;100550.81;;;-3.98;100.00
48077;BME280;33854;57.708;12.008;2023-02-04T10:12:14;100574.75;;;-3.84;100.00
48077;BME280;33854;57.708;12.008;2023-02-04T10:14:40;100580.75;;;-3.82;100.00
48077;BME280;33854;57.708;12.008;2023-02-04T10:17:07;100595.22;;;-3.79;100.00
48077;BME280;33854;57.708;12.008;2023-02-04T10:19:33;100598.75;;;-3.65;100.00
48077;BME280;33854;57.708;12.008;2023-02-04T10:21:59;100586.88;;;-3.62;100.00
48077;BME280;33854;57.708;12.008;2023-02-04T10:24:25;100587.78;;;-3.52;100.00
48077;BME280;33854;57.708;12.008;2023-02-04T10:26:51;100580.13;;;-3.55;100.00
48077;BME280;33854;57.708;12.008;2023-02-04T10:29:22;100581.94;;;-3.42;100.00
48077;BME280;33854;57.708;12.008;2023-02-04T10:31:50;100604.97;;;-3.33;100.00
48077;BME280;33854;57.708;12.008;2023-02-04T10:34:17;100606.75;;;-3.23;100.00
48077;BME280;33854;57.708;12.008;2023-02-04T10:36:52;100589.78;;;-3.19;100.00
48077;BME280;33854;57.708;12.008;2023-02-04T10:39:19;100590.69;;;-3.08;100.00
48077;BME280;33854;57.708;12.008;2023-02-04T10:41:50;100585.59;;;-3.07;100.00
48077;BME280;33854;57.708;12.008;2023-02-04T10:44:18;100606.94;;;-2.97;100.00
48077;BME280;33854;57.708;12.008;2023-02-04T10:46:45;100588.28;;;-2.87;100.00
48077;BME280;33854;57.708;12.008;2023-02-04T10:49:22;100587.44;;;-2.83;100.00
48077;BME280;33854;57.708;12.008;2023-02-04T10:51:49;100546.59;;;-2.81;100.00
48077;BME280;33854;57.708;12.008;2023-02-04T10:54:16;100605.34;;;-2.75;100.00
48077;BME280;33854;57.708;12.008;2023-02-04T10:57:06;100616.50;;;-2.64;100.00
48077;BME280;33854;57.708;12.008;2023-02-04T10:59:34;100631.84;;;-2.60;100.00
48077;BME280;33854;57.708;12.008;2023-02-04T11:02:05;100658.28;;;-2.55;100.00
48077;BME280;33854;57.708;12.008;2023-02-04T11:04:40;100643.84;;;-2.50;100.00
48077;BME280;33854;57.708;12.008;2023-02-04T11:07:11;100666.81;;;-2.51;100.00
48077;BME280;33854;57.708;12.008;2023-02-04T11:09:40;100705.25;;;-2.36;100.00
48077;BME280;33854;57.708;12.008;2023-02-04T11:12:35;100739.41;;;-2.22;100.00
48077;BME280;33854;57.708;12.008;2023-02-04T11:15:01;100758.16;;;-2.17;100.00
48077;BME280;33854;57.708;12.008;2023-02-04T11:17:31;100778.72;;;-2.00;100.00
48077;BME280;33854;57.708;12.008;2023-02-04T11:19:57;100789.03;;;-1.87;100.00
48077;BME280;33854;57.708;12.008;2023-02-04T11:22:45;100804.44;;;-1.76;100.00
48077;BME280;33854;57.708;12.008;2023-02-04T11:25:32;100764.38;;;-1.63;100.00
48077;BME280;33854;57.708;12.008;2023-02-04T11:27:58;100798.56;;;-1.51;100.00
48077;BME280;33854;57.708;12.008;2023-02-04T11:30:30;100808.84;;;-1.45;100.00
48077;BME280;33854;57.708;12.008;2023-02-04T11:33:01;100814.00;;;-1.36;100.00
48077;BME280;33854;57.708;12.008;2023-02-04T11:35:28;100823.41;;;-1.23;100.00
48077;BME280;33854;57.708;12.008;2023-02-04T11:37:54;100862.69;;;-1.19;100.00
48077;BME280;33854;57.708;12.008;2023-02-04T11:42:56;101028.34;;;-1.10;100.00
48077;BME280;33854;57.708;12.008;2023-02-04T11:45:30;101040.31;;;-1.08;100.00
48077;BME280;33854;57.708;12.008;2023-02-04T11:47:58;101083.94;;;-0.96;100.00
48077;BME280;33854;57.708;12.008;2023-02-04T11:50:31;101134.34;;;-0.90;100.00
48077;BME280;33854;57.708;12.008;2023-02-04T11:52:58;101155.81;;;-0.76;100.00
48077;BME280;33854;57.708;12.008;2023-02-04T11:55:25;101193.44;;;-0.72;100.00
48077;BME280;33854;57.708;12.008;2023-02-04T11:57:52;101259.13;;;-0.80;100.00
48077;BME280;33854;57.708;12.008;2023-02-04T12:00:23;101259.06;;;-0.89;100.00
48077;BME280;33854;57.708;12.008;2023-02-04T12:02:57;101309.63;;;-0.70;100.00
48077;BME280;33854;57.708;12.008;2023-02-04T12:05:44;101317.34;;;-0.66;100.00
48077;BME280;33854;57.708;12.008;2023-02-04T12:08:32;101325.09;;;-0.60;100.00
48077;BME280;33854;57.708;12.008;2023-02-04T12:11:24;101354.19;;;-0.57;100.00
48077;BME280;33854;57.708;12.008;2023-02-04T12:13:55;101249.38;;;-0.12;100.00
48077;BME280;33854;57.708;12.008;2023-02-04T12:16:20;101269.38;;;0.72;100.00
48077;BME280;33854;57.708;12.008;2023-02-04T12:18:46;101365.44;;;1.23;100.00
48077;BME280;33854;57.708;12.008;2023-02-04T12:21:11;101404.94;;;1.73;100.00
48077;BME280;33854;57.708;12.008;2023-02-04T12:23:38;101479.59;;;2.27;100.00
48077;BME280;33854;57.708;12.008;2023-02-04T12:26:04;101620.44;;;2.68;100.00
48077;BME280;33854;57.708;12.008;2023-02-04T12:28:29;101617.78;;;3.42;100.00
48077;BME280;33854;57.708;12.008;2023-02-04T12:30:55;101757.06;;;3.77;100.00
48077;BME280;33854;57.708;12.008;2023-02-04T12:33:20;101813.88;;;3.28;100.00
48077;BME280;33854;57.708;12.008;2023-02-04T12:35:49;101862.91;;;3.48;100.00